sensor_id;sensor_type;location;lat;lon;timestamp;pressure;altitude;pressure_sealevel;temperature;humidity
21395;BME280;10858;42.714;23.180;2022-11-21T00:00:06;93146.13;;;11.98;86.26
21395;BME280;10858;42.714;23.180;2022-11-21T00:02:33;93145.31;;;11.98;86.05
21395;BME280;10858;42.714;23.180;2022-11-21T00:04:59;93135.03;;;11.95;86.32
21395;BME280;10858;42.714;23.180;2022-11-21T00:07:25;93149.00;;;11.89;87.41
21395;BME280;10858;42.714;23.180;2022-11-21T00:09:51;93140.88;;;12.44;84.18
21395;BME280;10858;42.714;23.180;2022-11-21T00:12:17;93143.38;;;12.15;84.95
21395;BME280;10858;42.714;23.180;2022-11-21T00:14:46;93135.25;;;11.85;86.87
21395;BME280;10858;42.714;23.180;2022-11-21T00:17:12;93136.84;;;11.94;86.94
21395;BME280;10858;42.714;23.180;2022-11-21T00:19:38;93133.53;;;11.92;87.39
21395;BME280;10858;42.714;23.180;2022-11-21T00:22:10;93148.53;;;11.85;88.00
21395;BME280;10858;42.714;23.180;2022-11-21T00:24:37;93173.41;;;11.38;91.13
21395;BME280;10858;42.714;23.180;2022-11-21T00:27:03;93157.66;;;11.28;93.07
21395;BME280;10858;42.714;23.180;2022-11-21T00:29:29;93139.50;;;11.94;90.04
21395;BME280;10858;42.714;23.180;2022-11-21T00:31:55;93122.66;;;12.33;87.79
21395;BME280;10858;42.714;23.180;2022-11-21T00:34:21;93097.88;;;12.40;87.31
21395;BME280;10858;42.714;23.180;2022-11-21T00:36:48;93072.53;;;12.67;84.97
21395;BME280;10858;42.714;23.180;2022-11-21T00:39:14;93059.06;;;12.68;83.46
21395;BME280;10858;42.714;23.180;2022-11-21T00:41:40;93068.56;;;12.26;83.03
21395;BME280;10858;42.714;23.180;2022-11-21T00:44:06;93075.69;;;11.72;85.18
21395;BME280;10858;42.714;23.180;2022-11-21T00:46:33;93087.09;;;11.42;85.40
21395;BME280;10858;42.714;23.180;2022-11-21T00:48:59;93092.81;;;11.61;84.22
21395;BME280;10858;42.714;23.180;2022-11-21T00:51:25;93087.09;;;11.80;82.09
21395;BME280;10858;42.714;23.180;2022-11-21T00:53:51;93088.41;;;11.46;82.51
21395;BME280;10858;42.714;23.180;2022-11-21T00:56:17;93094.66;;;11.14;83.71
21395;BME280;10858;42.714;23.180;2022-11-21T00:58:43;93084.25;;;10.80;85.68
21395;BME280;10858;42.714;23.180;2022-11-21T01:01:12;93083.78;;;10.69;86.41
21395;BME280;10858;42.714;23.180;2022-11-21T01:03:38;93068.53;;;10.55;87.10
21395;BME280;10858;42.714;23.180;2022-11-21T01:06:15;93073.00;;;10.54;86.36
21395;BME280;10858;42.714;23.180;2022-11-21T01:08:42;93068.22;;;10.50;86.81
21395;BME280;10858;42.714;23.180;2022-11-21T01:11:15;93052.28;;;10.74;84.37
21395;BME280;10858;42.714;23.180;2022-11-21T01:13:41;93049.28;;;10.77;83.26
21395;BME280;10858;42.714;23.180;2022-11-21T01:16:14;93058.59;;;10.49;84.25
21395;BME280;10858;42.714;23.180;2022-11-21T01:18:40;93067.75;;;10.14;86.05
21395;BME280;10858;42.714;23.180;2022-11-21T01:21:14;93077.63;;;9.96;87.04
21395;BME280;10858;42.714;23.180;2022-11-21T01:23:41;93061.94;;;10.18;86.73
21395;BME280;10858;42.714;23.180;2022-11-21T01:26:11;93064.09;;;10.39;86.31
21395;BME280;10858;42.714;23.180;2022-11-21T01:28:38;93093.41;;;10.38;87.72
21395;BME280;10858;42.714;23.180;2022-11-21T01:31:06;93091.22;;;10.81;85.69
21395;BME280;10858;42.714;23.180;2022-11-21T01:33:33;93073.28;;;11.07;84.23
21395;BME280;10858;42.714;23.180;2022-11-21T01:36:17;93072.44;;;10.99;86.40
21395;BME280;10858;42.714;23.180;2022-11-21T01:38:46;93061.75;;;11.31;88.12
21395;BME280;10858;42.714;23.180;2022-11-21T01:41:15;93053.00;;;11.53;87.81
21395;BME280;10858;42.714;23.180;2022-11-21T01:43:41;93057.16;;;11.86;89.48
21395;BME280;10858;42.714;23.180;2022-11-21T01:53:47;93014.22;;;12.80;88.57
21395;BME280;10858;42.714;23.180;2022-11-21T01:56:14;93019.16;;;12.83;87.55
21395;BME280;10858;42.714;23.180;2022-11-21T01:58:41;93000.16;;;12.71;88.30
21395;BME280;10858;42.714;23.180;2022-11-21T02:01:09;92992.56;;;12.68;88.50
21395;BME280;10858;42.714;23.180;2022-11-21T02:03:37;92996.03;;;12.54;89.02
21395;BME280;10858;42.714;23.180;2022-11-21T02:06:05;93005.28;;;12.58;89.13
21395;BME280;10858;42.714;23.180;2022-11-21T02:08:33;93011.00;;;12.70;89.03
21395;BME280;10858;42.714;23.180;2022-11-21T02:13:52;93025.41;;;12.75;90.19
21395;BME280;10858;42.714;23.180;2022-11-21T02:16:18;93016.41;;;12.91;89.62
21395;BME280;10858;42.714;23.180;2022-11-21T02:18:44;93016.16;;;12.86;88.66
21395;BME280;10858;42.714;23.180;2022-11-21T02:21:24;93029.28;;;13.02;89.34
21395;BME280;10858;42.714;23.180;2022-11-21T02:24:00;93025.09;;;13.22;87.89
21395;BME280;10858;42.714;23.180;2022-11-21T02:26:29;93012.53;;;13.16;88.38
21395;BME280;10858;42.714;23.180;2022-11-21T02:28:56;93002.53;;;13.18;87.79
21395;BME280;10858;42.714;23.180;2022-11-21T02:31:23;92995.53;;;13.17;86.51
21395;BME280;10858;42.714;23.180;2022-11-21T02:33:49;92989.63;;;12.93;87.26
21395;BME280;10858;42.714;23.180;2022-11-21T02:36:35;93002.03;;;13.00;86.56
21395;BME280;10858;42.714;23.180;2022-11-21T02:39:24;93001.81;;;12.87;86.95
21395;BME280;10858;42.714;23.180;2022-11-21T02:47:13;93002.41;;;12.82;87.71
21395;BME280;10858;42.714;23.180;2022-11-21T02:49:55;93009.81;;;12.87;87.10
21395;BME280;10858;42.714;23.180;2022-11-21T02:52:23;92989.63;;;12.78;87.10
21395;BME280;10858;42.714;23.180;2022-11-21T02:54:49;92986.44;;;12.82;86.92
21395;BME280;10858;42.714;23.180;2022-11-21T02:57:15;92981.75;;;12.85;86.21
21395;BME280;10858;42.714;23.180;2022-11-21T02:59:41;92981.38;;;12.88;86.58
21395;BME280;10858;42.714;23.180;2022-11-21T03:02:07;92986.16;;;12.92;86.00
21395;BME280;10858;42.714;23.180;2022-11-21T03:04:34;92979.25;;;12.83;85.89
21395;BME280;10858;42.714;23.180;2022-11-21T03:07:00;92986.03;;;12.86;86.28
21395;BME280;10858;42.714;23.180;2022-11-21T03:09:26;92979.19;;;12.76;86.88
21395;BME280;10858;42.714;23.180;2022-11-21T03:11:52;92977.31;;;12.77;87.40
21395;BME280;10858;42.714;23.180;2022-11-21T03:14:18;92973.56;;;12.71;87.61
21395;BME280;10858;42.714;23.180;2022-11-21T03:16:44;92972.19;;;12.90;87.54
21395;BME280;10858;42.714;23.180;2022-11-21T03:19:11;92968.00;;;13.10;86.61
21395;BME280;10858;42.714;23.180;2022-11-21T03:21:37;92967.44;;;13.00;86.48
21395;BME280;10858;42.714;23.180;2022-11-21T03:24:03;92969.19;;;13.08;86.64
21395;BME280;10858;42.714;23.180;2022-11-21T03:26:29;92978.91;;;13.15;85.43
21395;BME280;10858;42.714;23.180;2022-11-21T03:28:56;92966.16;;;13.11;85.42
21395;BME280;10858;42.714;23.180;2022-11-21T03:31:22;92969.53;;;13.05;85.29
21395;BME280;10858;42.714;23.180;2022-11-21T03:33:48;92971.19;;;12.91;85.91
21395;BME280;10858;42.714;23.180;2022-11-21T03:36:14;92968.97;;;12.95;84.79
21395;BME280;10858;42.714;23.180;2022-11-21T03:38:40;92970.38;;;13.05;84.37
21395;BME280;10858;42.714;23.180;2022-11-21T03:41:06;92968.16;;;12.94;84.28
21395;BME280;10858;42.714;23.180;2022-11-21T03:43:53;92958.50;;;12.93;83.92
21395;BME280;10858;42.714;23.180;2022-11-21T03:46:19;92970.47;;;12.82;84.46
21395;BME280;10858;42.714;23.180;2022-11-21T03:48:45;92953.03;;;12.80;82.79
21395;BME280;10858;42.714;23.180;2022-11-21T03:51:11;92950.91;;;12.90;83.57
21395;BME280;10858;42.714;23.180;2022-11-21T03:53:37;92957.13;;;12.97;83.15
21395;BME280;10858;42.714;23.180;2022-11-21T03:56:03;92955.97;;;13.14;83.02
21395;BME280;10858;42.714;23.180;2022-11-21T03:58:30;92938.09;;;13.08;83.02
21395;BME280;10858;42.714;23.180;2022-11-21T04:00:56;92945.88;;;13.10;82.66
21395;BME280;10858;42.714;23.180;2022-11-21T04:03:22;92930.78;;;13.17;82.54
21395;BME280;10858;42.714;23.180;2022-11-21T04:05:48;92935.31;;;13.16;82.41
21395;BME280;10858;42.714;23.180;2022-11-21T04:08:14;92939.06;;;13.07;82.87
21395;BME280;10858;42.714;23.180;2022-11-21T04:10:46;92929.50;;;13.13;82.87
21395;BME280;10858;42.714;23.180;2022-11-21T04:13:13;92935.41;;;13.08;83.49
21395;BME280;10858;42.714;23.180;2022-11-21T04:15:41;92926.47;;;13.01;83.18
21395;BME280;10858;42.714;23.180;2022-11-21T04:18:07;92930.09;;;13.08;82.65
21395;BME280;10858;42.714;23.180;2022-11-21T04:20:33;92923.44;;;13.19;82.70
21395;BME280;10858;42.714;23.180;2022-11-21T04:22:59;92947.94;;;13.29;82.33
21395;BME280;10858;42.714;23.180;2022-11-21T04:25:26;92945.16;;;13.51;81.36
21395;BME280;10858;42.714;23.180;2022-11-21T04:27:56;92950.34;;;13.38;82.00
21395;BME280;10858;42.714;23.180;2022-11-21T04:30:22;92940.47;;;13.53;81.44
21395;BME280;10858;42.714;23.180;2022-11-21T04:32:52;92941.44;;;13.31;81.70
21395;BME280;10858;42.714;23.180;2022-11-21T04:35:19;92950.97;;;13.40;81.66
21395;BME280;10858;42.714;23.180;2022-11-21T04:37:45;92943.00;;;13.40;81.02
21395;BME280;10858;42.714;23.180;2022-11-21T04:40:12;92958.22;;;13.46;81.55
21395;BME280;10858;42.714;23.180;2022-11-21T04:42:43;92957.00;;;13.49;80.42
21395;BME280;10858;42.714;23.180;2022-11-21T04:45:09;92950.00;;;13.62;80.02
21395;BME280;10858;42.714;23.180;2022-11-21T04:47:41;92948.16;;;13.63;78.92
21395;BME280;10858;42.714;23.180;2022-11-21T04:50:09;92954.94;;;13.65;79.36
21395;BME280;10858;42.714;23.180;2022-11-21T04:52:36;92938.09;;;13.80;78.95
21395;BME280;10858;42.714;23.180;2022-11-21T04:55:02;92940.09;;;13.78;78.82
21395;BME280;10858;42.714;23.180;2022-11-21T04:57:30;92944.28;;;13.65;79.33
21395;BME280;10858;42.714;23.180;2022-11-21T04:59:56;92947.06;;;13.57;79.27
21395;BME280;10858;42.714;23.180;2022-11-21T05:02:23;92935.13;;;13.53;79.33
21395;BME280;10858;42.714;23.180;2022-11-21T05:04:49;92957.28;;;13.54;79.50
21395;BME280;10858;42.714;23.180;2022-11-21T05:07:16;92955.22;;;13.71;78.81
21395;BME280;10858;42.714;23.180;2022-11-21T05:09:42;92960.13;;;13.52;78.37
21395;BME280;10858;42.714;23.180;2022-11-21T05:12:09;92956.13;;;13.63;77.72
21395;BME280;10858;42.714;23.180;2022-11-21T05:14:54;92961.31;;;13.64;78.04
21395;BME280;10858;42.714;23.180;2022-11-21T05:17:20;92979.44;;;13.76;77.55
21395;BME280;10858;42.714;23.180;2022-11-21T05:19:48;92986.56;;;13.69;77.03
21395;BME280;10858;42.714;23.180;2022-11-21T05:22:14;93005.97;;;13.62;78.20
21395;BME280;10858;42.714;23.180;2022-11-21T05:24:40;93010.69;;;13.82;77.03
21395;BME280;10858;42.714;23.180;2022-11-21T05:27:06;93008.56;;;13.77;77.67
21395;BME280;10858;42.714;23.180;2022-11-21T05:29:32;93019.31;;;13.84;76.95
21395;BME280;10858;42.714;23.180;2022-11-21T05:31:59;93045.59;;;13.87;76.13
21395;BME280;10858;42.714;23.180;2022-11-21T05:34:25;93049.16;;;13.94;75.47
21395;BME280;10858;42.714;23.180;2022-11-21T05:36:54;93059.78;;;13.73;77.20
21395;BME280;10858;42.714;23.180;2022-11-21T05:39:24;93069.53;;;13.65;76.65
21395;BME280;10858;42.714;23.180;2022-11-21T05:41:50;93080.72;;;13.90;77.66
21395;BME280;10858;42.714;23.180;2022-11-21T05:44:17;93084.03;;;13.78;77.22
21395;BME280;10858;42.714;23.180;2022-11-21T05:46:43;93080.81;;;13.82;77.15
21395;BME280;10858;42.714;23.180;2022-11-21T05:49:10;93111.31;;;12.84;71.71
21395;BME280;10858;42.714;23.180;2022-11-21T05:51:37;93131.31;;;11.73;74.11
21395;BME280;10858;42.714;23.180;2022-11-21T05:54:03;93118.84;;;11.11;75.99
21395;BME280;10858;42.714;23.180;2022-11-21T05:56:30;93142.13;;;10.61;77.79
21395;BME280;10858;42.714;23.180;2022-11-21T05:58:57;93139.63;;;10.51;78.33
21395;BME280;10858;42.714;23.180;2022-11-21T06:01:24;93132.19;;;10.71;77.76
21395;BME280;10858;42.714;23.180;2022-11-21T06:04:09;93148.91;;;10.39;78.09
21395;BME280;10858;42.714;23.180;2022-11-21T06:06:36;93143.69;;;9.97;78.11
21395;BME280;10858;42.714;23.180;2022-11-21T06:09:03;93159.84;;;10.28;77.09
21395;BME280;10858;42.714;23.180;2022-11-21T06:11:29;93155.16;;;9.72;77.84
21395;BME280;10858;42.714;23.180;2022-11-21T06:13:55;93163.47;;;9.77;77.77
21395;BME280;10858;42.714;23.180;2022-11-21T06:16:21;93157.69;;;9.74;78.53
21395;BME280;10858;42.714;23.180;2022-11-21T06:18:49;93169.72;;;9.68;78.18
21395;BME280;10858;42.714;23.180;2022-11-21T06:21:22;93166.56;;;9.31;78.90
21395;BME280;10858;42.714;23.180;2022-11-21T06:23:52;93186.06;;;9.30;79.73
21395;BME280;10858;42.714;23.180;2022-11-21T06:26:23;93184.66;;;9.18;80.50
21395;BME280;10858;42.714;23.180;2022-11-21T06:28:50;93192.78;;;8.91;81.88
21395;BME280;10858;42.714;23.180;2022-11-21T06:31:25;93195.75;;;8.88;82.36
21395;BME280;10858;42.714;23.180;2022-11-21T06:33:56;93206.47;;;8.69;83.56
21395;BME280;10858;42.714;23.180;2022-11-21T06:36:24;93206.84;;;8.56;84.73
21395;BME280;10858;42.714;23.180;2022-11-21T06:38:53;93219.84;;;8.32;85.36
21395;BME280;10858;42.714;23.180;2022-11-21T06:41:22;93217.47;;;8.11;86.11
21395;BME280;10858;42.714;23.180;2022-11-21T06:43:49;93230.53;;;7.86;87.26
21395;BME280;10858;42.714;23.180;2022-11-21T06:46:16;93231.50;;;8.39;87.26
21395;BME280;10858;42.714;23.180;2022-11-21T06:48:43;93226.97;;;8.04;85.96
21395;BME280;10858;42.714;23.180;2022-11-21T06:51:19;93236.47;;;7.97;87.50
21395;BME280;10858;42.714;23.180;2022-11-21T06:53:50;93247.41;;;8.02;87.25
21395;BME280;10858;42.714;23.180;2022-11-21T06:56:21;93238.72;;;7.65;88.09
21395;BME280;10858;42.714;23.180;2022-11-21T06:58:47;93243.84;;;7.66;88.69
21395;BME280;10858;42.714;23.180;2022-11-21T07:01:13;93274.53;;;7.31;89.60
21395;BME280;10858;42.714;23.180;2022-11-21T07:03:39;93266.25;;;7.07;90.37
21395;BME280;10858;42.714;23.180;2022-11-21T07:06:06;93277.50;;;6.99;91.43
21395;BME280;10858;42.714;23.180;2022-11-21T07:08:34;93294.53;;;7.14;90.79
21395;BME280;10858;42.714;23.180;2022-11-21T07:11:11;93312.72;;;7.08;91.01
21395;BME280;10858;42.714;23.180;2022-11-21T07:13:38;93327.72;;;6.98;91.45
21395;BME280;10858;42.714;23.180;2022-11-21T07:16:11;93330.34;;;6.98;91.10
21395;BME280;10858;42.714;23.180;2022-11-21T07:18:42;93331.47;;;6.85;90.75
21395;BME280;10858;42.714;23.180;2022-11-21T07:21:10;93345.75;;;7.21;89.81
21395;BME280;10858;42.714;23.180;2022-11-21T07:23:36;93351.16;;;7.10;89.89
21395;BME280;10858;42.714;23.180;2022-11-21T07:26:05;93345.31;;;7.26;89.89
21395;BME280;10858;42.714;23.180;2022-11-21T07:28:32;93334.75;;;7.45;88.75
21395;BME280;10858;42.714;23.180;2022-11-21T07:30:59;93353.94;;;7.37;87.55
21395;BME280;10858;42.714;23.180;2022-11-21T07:33:26;93367.00;;;7.29;88.25
21395;BME280;10858;42.714;23.180;2022-11-21T07:35:55;93368.66;;;7.21;88.64
21395;BME280;10858;42.714;23.180;2022-11-21T07:38:25;93368.91;;;7.37;87.30
21395;BME280;10858;42.714;23.180;2022-11-21T07:40:52;93381.13;;;7.00;88.40
21395;BME280;10858;42.714;23.180;2022-11-21T07:43:18;93399.31;;;7.22;88.24
21395;BME280;10858;42.714;23.180;2022-11-21T07:45:44;93398.31;;;7.42;87.35
21395;BME280;10858;42.714;23.180;2022-11-21T07:48:10;93408.44;;;7.56;86.45
21395;BME280;10858;42.714;23.180;2022-11-21T07:50:37;93402.91;;;7.59;86.85
21395;BME280;10858;42.714;23.180;2022-11-21T07:53:06;93413.91;;;7.35;86.80
21395;BME280;10858;42.714;23.180;2022-11-21T07:55:33;93412.50;;;7.03;87.52
21395;BME280;10858;42.714;23.180;2022-11-21T07:58:04;93419.16;;;7.07;87.92
21395;BME280;10858;42.714;23.180;2022-11-21T08:00:33;93419.47;;;7.23;86.98
21395;BME280;10858;42.714;23.180;2022-11-21T08:03:04;93418.03;;;7.57;87.08
21395;BME280;10858;42.714;23.180;2022-11-21T08:05:41;93423.75;;;8.08;86.63
21395;BME280;10858;42.714;23.180;2022-11-21T08:08:08;93429.44;;;8.13;85.26
21395;BME280;10858;42.714;23.180;2022-11-21T08:10:42;93422.69;;;8.01;85.27
21395;BME280;10858;42.714;23.180;2022-11-21T08:13:09;93428.16;;;8.64;83.74
21395;BME280;10858;42.714;23.180;2022-11-21T08:15:36;93426.88;;;8.68;82.24
21395;BME280;10858;42.714;23.180;2022-11-21T08:18:09;93437.47;;;8.21;82.71
21395;BME280;10858;42.714;23.180;2022-11-21T08:20:36;93439.31;;;8.11;83.35
21395;BME280;10858;42.714;23.180;2022-11-21T08:23:03;93437.28;;;7.86;84.12
21395;BME280;10858;42.714;23.180;2022-11-21T08:25:29;93440.94;;;7.66;85.01
21395;BME280;10858;42.714;23.180;2022-11-21T08:27:56;93449.38;;;7.89;84.53
21395;BME280;10858;42.714;23.180;2022-11-21T08:30:22;93448.78;;;8.04;82.79
21395;BME280;10858;42.714;23.180;2022-11-21T08:32:49;93450.38;;;8.71;81.55
21395;BME280;10858;42.714;23.180;2022-11-21T08:35:15;93458.81;;;8.47;81.38
21395;BME280;10858;42.714;23.180;2022-11-21T08:37:42;93455.97;;;8.68;80.58
21395;BME280;10858;42.714;23.180;2022-11-21T08:40:08;93469.41;;;8.74;80.01
21395;BME280;10858;42.714;23.180;2022-11-21T08:42:35;93465.69;;;8.30;79.96
21395;BME280;10858;42.714;23.180;2022-11-21T08:45:04;93476.78;;;8.43;79.83
21395;BME280;10858;42.714;23.180;2022-11-21T08:47:32;93465.34;;;9.07;78.70
21395;BME280;10858;42.714;23.180;2022-11-21T08:49:59;93470.97;;;9.39;78.15
21395;BME280;10858;42.714;23.180;2022-11-21T08:52:25;93465.13;;;9.88;77.16
21395;BME280;10858;42.714;23.180;2022-11-21T08:54:51;93467.00;;;9.78;74.71
21395;BME280;10858;42.714;23.180;2022-11-21T08:57:17;93473.84;;;9.63;74.95
21395;BME280;10858;42.714;23.180;2022-11-21T08:59:43;93468.94;;;9.33;76.98
21395;BME280;10858;42.714;23.180;2022-11-21T09:02:10;93478.13;;;9.11;79.85
21395;BME280;10858;42.714;23.180;2022-11-21T09:04:36;93475.56;;;8.92;79.61
21395;BME280;10858;42.714;23.180;2022-11-21T09:07:02;93469.66;;;8.81;80.59
21395;BME280;10858;42.714;23.180;2022-11-21T09:09:29;93471.84;;;9.30;80.05
21395;BME280;10858;42.714;23.180;2022-11-21T09:11:55;93469.00;;;9.23;78.27
21395;BME280;10858;42.714;23.180;2022-11-21T09:14:21;93478.06;;;9.38;79.65
21395;BME280;10858;42.714;23.180;2022-11-21T09:17:10;93475.47;;;9.11;78.26
21395;BME280;10858;42.714;23.180;2022-11-21T09:19:55;93462.91;;;8.22;79.77
21395;BME280;10858;42.714;23.180;2022-11-21T09:22:23;93478.56;;;7.87;82.17
21395;BME280;10858;42.714;23.180;2022-11-21T09:24:51;93471.53;;;8.24;81.25
21395;BME280;10858;42.714;23.180;2022-11-21T09:27:17;93481.56;;;8.21;80.65
21395;BME280;10858;42.714;23.180;2022-11-21T09:29:43;93485.50;;;8.07;81.28
21395;BME280;10858;42.714;23.180;2022-11-21T09:32:09;93482.38;;;8.31;81.05
21395;BME280;10858;42.714;23.180;2022-11-21T09:34:35;93472.78;;;8.30;80.79
21395;BME280;10858;42.714;23.180;2022-11-21T09:37:01;93459.44;;;8.31;81.05
21395;BME280;10858;42.714;23.180;2022-11-21T09:39:27;93456.97;;;8.57;81.65
21395;BME280;10858;42.714;23.180;2022-11-21T09:47:32;93477.56;;;7.98;82.38
21395;BME280;10858;42.714;23.180;2022-11-21T09:50:12;93475.50;;;8.01;82.43
21395;BME280;10858;42.714;23.180;2022-11-21T09:52:50;93479.28;;;7.70;81.46
21395;BME280;10858;42.714;23.180;2022-11-21T09:58:05;93488.59;;;7.45;82.41
21395;BME280;10858;42.714;23.180;2022-11-21T10:00:36;93494.41;;;7.11;82.19
21395;BME280;10858;42.714;23.180;2022-11-21T10:03:02;93493.00;;;7.73;81.50
21395;BME280;10858;42.714;23.180;2022-11-21T10:05:46;93496.09;;;7.59;81.78
21395;BME280;10858;42.714;23.180;2022-11-21T10:25:38;93507.63;;;8.89;81.65
21395;BME280;10858;42.714;23.180;2022-11-21T10:31:15;93514.28;;;8.56;78.74
21395;BME280;10858;42.714;23.180;2022-11-21T10:33:42;93504.19;;;8.79;80.74
21395;BME280;10858;42.714;23.180;2022-11-21T10:36:30;93515.69;;;9.15;79.36
21395;BME280;10858;42.714;23.180;2022-11-21T10:41:56;93509.19;;;8.36;79.51
21395;BME280;10858;42.714;23.180;2022-11-21T10:44:25;93516.72;;;8.21;80.87
21395;BME280;10858;42.714;23.180;2022-11-21T10:47:21;93519.66;;;8.28;80.27
21395;BME280;10858;42.714;23.180;2022-11-21T10:55:13;93525.06;;;8.45;80.08
21395;BME280;10858;42.714;23.180;2022-11-21T10:57:46;93517.69;;;8.39;81.10
21395;BME280;10858;42.714;23.180;2022-11-21T11:02:40;93528.22;;;8.49;79.16
21395;BME280;10858;42.714;23.180;2022-11-21T11:05:17;93527.84;;;8.34;79.29
21395;BME280;10858;42.714;23.180;2022-11-21T11:08:11;93527.19;;;8.13;80.42
21395;BME280;10858;42.714;23.180;2022-11-21T11:10:59;93519.06;;;8.34;80.43
21395;BME280;10858;42.714;23.180;2022-11-21T11:13:26;93526.00;;;8.44;82.19
21395;BME280;10858;42.714;23.180;2022-11-21T11:16:02;93525.88;;;8.83;80.44
21395;BME280;10858;42.714;23.180;2022-11-21T11:18:34;93518.78;;;9.10;78.36
21395;BME280;10858;42.714;23.180;2022-11-21T11:21:24;93530.63;;;9.33;77.10
21395;BME280;10858;42.714;23.180;2022-11-21T11:23:52;93527.56;;;8.84;75.98
21395;BME280;10858;42.714;23.180;2022-11-21T11:26:29;93525.66;;;9.03;77.31
21395;BME280;10858;42.714;23.180;2022-11-21T11:29:14;93532.50;;;8.96;75.76
21395;BME280;10858;42.714;23.180;2022-11-21T11:31:55;93521.84;;;8.79;77.27
21395;BME280;10858;42.714;23.180;2022-11-21T11:34:23;93518.34;;;8.88;77.69
21395;BME280;10858;42.714;23.180;2022-11-21T11:37:04;93515.97;;;9.12;75.39
21395;BME280;10858;42.714;23.180;2022-11-21T11:48:07;93523.91;;;10.09;72.93
21395;BME280;10858;42.714;23.180;2022-11-21T11:50:51;93516.97;;;9.73;73.58
21395;BME280;10858;42.714;23.180;2022-11-21T11:53:23;93513.59;;;10.06;70.94
21395;BME280;10858;42.714;23.180;2022-11-21T11:56:04;93513.03;;;9.77;72.90
21395;BME280;10858;42.714;23.180;2022-11-21T11:58:35;93507.88;;;9.40;74.44
21395;BME280;10858;42.714;23.180;2022-11-21T12:04:02;93510.38;;;9.77;70.97
21395;BME280;10858;42.714;23.180;2022-11-21T12:09:26;93512.03;;;9.25;73.22
21395;BME280;10858;42.714;23.180;2022-11-21T12:15:29;93526.97;;;9.62;71.82
21395;BME280;10858;42.714;23.180;2022-11-21T12:23:36;93530.97;;;10.62;68.32
21395;BME280;10858;42.714;23.180;2022-11-21T12:26:19;93536.47;;;10.07;67.32
21395;BME280;10858;42.714;23.180;2022-11-21T12:34:24;93529.31;;;12.82;64.16
21395;BME280;10858;42.714;23.180;2022-11-21T12:37:07;93518.22;;;12.31;62.63
21395;BME280;10858;42.714;23.180;2022-11-21T12:45:28;93513.94;;;9.68;68.17
21395;BME280;10858;42.714;23.180;2022-11-21T12:48:19;93521.63;;;9.44;68.83
21395;BME280;10858;42.714;23.180;2022-11-21T12:57:11;93543.81;;;8.42;71.77
21395;BME280;10858;42.714;23.180;2022-11-21T13:05:13;93554.75;;;8.67;73.06
21395;BME280;10858;42.714;23.180;2022-11-21T13:07:42;93572.75;;;8.34;72.20
21395;BME280;10858;42.714;23.180;2022-11-21T13:10:14;93569.00;;;8.37;73.14
21395;BME280;10858;42.714;23.180;2022-11-21T13:18:41;93566.31;;;8.56;72.17
21395;BME280;10858;42.714;23.180;2022-11-21T13:21:47;93563.97;;;8.24;71.71
21395;BME280;10858;42.714;23.180;2022-11-21T13:32:46;93570.56;;;8.86;71.33
21395;BME280;10858;42.714;23.180;2022-11-21T13:43:24;93562.56;;;8.58;73.30
21395;BME280;10858;42.714;23.180;2022-11-21T13:45:52;93568.22;;;8.73;71.70
21395;BME280;10858;42.714;23.180;2022-11-21T13:49:12;93573.31;;;8.47;72.68
21395;BME280;10858;42.714;23.180;2022-11-21T14:02:14;93574.00;;;8.49;72.73
21395;BME280;10858;42.714;23.180;2022-11-21T14:07:39;93574.69;;;8.42;71.78
21395;BME280;10858;42.714;23.180;2022-11-21T14:10:31;93567.56;;;8.62;71.98
21395;BME280;10858;42.714;23.180;2022-11-21T14:13:01;93575.47;;;8.71;71.44
21395;BME280;10858;42.714;23.180;2022-11-21T14:15:33;93572.75;;;8.44;71.93
21395;BME280;10858;42.714;23.180;2022-11-21T14:18:03;93577.91;;;8.26;72.38
21395;BME280;10858;42.714;23.180;2022-11-21T14:20:50;93582.38;;;7.97;72.52
21395;BME280;10858;42.714;23.180;2022-11-21T14:23:19;93588.91;;;7.93;73.24
21395;BME280;10858;42.714;23.180;2022-11-21T14:25:49;93599.47;;;8.03;72.73
21395;BME280;10858;42.714;23.180;2022-11-21T14:28:26;93584.88;;;7.99;72.43
21395;BME280;10858;42.714;23.180;2022-11-21T14:31:02;93579.97;;;8.04;71.95
21395;BME280;10858;42.714;23.180;2022-11-21T14:33:31;93564.16;;;7.94;73.56
21395;BME280;10858;42.714;23.180;2022-11-21T14:36:25;93577.22;;;7.67;73.12
21395;BME280;10858;42.714;23.180;2022-11-21T14:38:58;93581.59;;;7.38;75.02
21395;BME280;10858;42.714;23.180;2022-11-21T14:46:30;93583.91;;;6.72;76.90
21395;BME280;10858;42.714;23.180;2022-11-21T14:51:35;93600.84;;;6.79;76.26
21395;BME280;10858;42.714;23.180;2022-11-21T14:54:02;93610.75;;;6.87;76.19
21395;BME280;10858;42.714;23.180;2022-11-21T14:56:30;93616.94;;;7.07;76.24
21395;BME280;10858;42.714;23.180;2022-11-21T14:58:58;93618.16;;;7.03;75.86
21395;BME280;10858;42.714;23.180;2022-11-21T15:01:31;93616.78;;;6.78;76.21
21395;BME280;10858;42.714;23.180;2022-11-21T15:04:00;93610.31;;;6.92;76.36
21395;BME280;10858;42.714;23.180;2022-11-21T15:06:27;93609.28;;;7.04;76.37
21395;BME280;10858;42.714;23.180;2022-11-21T15:08:55;93613.72;;;7.03;77.22
21395;BME280;10858;42.714;23.180;2022-11-21T15:14:04;93628.03;;;6.29;80.40
21395;BME280;10858;42.714;23.180;2022-11-21T15:16:32;93629.81;;;6.49;81.12
21395;BME280;10858;42.714;23.180;2022-11-21T15:18:59;93629.94;;;6.68;80.46
21395;BME280;10858;42.714;23.180;2022-11-21T15:21:25;93618.03;;;6.74;81.05
21395;BME280;10858;42.714;23.180;2022-11-21T15:23:54;93598.56;;;6.96;79.87
21395;BME280;10858;42.714;23.180;2022-11-21T15:26:33;93601.72;;;6.89;79.31
21395;BME280;10858;42.714;23.180;2022-11-21T15:29:00;93597.78;;;7.05;78.81
21395;BME280;10858;42.714;23.180;2022-11-21T15:31:27;93593.34;;;7.05;78.92
21395;BME280;10858;42.714;23.180;2022-11-21T15:34:01;93599.53;;;6.95;79.69
21395;BME280;10858;42.714;23.180;2022-11-21T15:36:29;93617.59;;;6.99;80.47